Time;durP1;ratioP1;P1;durP2;ratioP2;P2;SDS_P1;SDS_P2;PMS_P1;PMS_P2;Temp;Humidity;BMP_temperature;BMP_pressure;BME280_temperature;BME280_humidity;BME280_pressure;Samples;Min_cycle;Max_cycle;Signal;HPM_P1;HPM_P2
2022/05/02 00:01:16;;;;;;;4.47;4.07;;;;;;;12.26;65.99;99090.66;5127331;27;41885;-82
2022/05/02 00:03:43;;;;;;;6.03;5.17;;;;;;;11.93;68.10;99031.81;5112975;28;42783;-84
2022/05/02 00:06:11;;;;;;;6.70;6.00;;;;;;;12.20;67.73;99083.94;5114088;27;42357;-83
2022/05/02 00:08:40;;;;;;;5.20;4.63;;;;;;;12.15;67.90;99086.03;5096116;28;38929;-78
2022/05/02 00:11:08;;;;;;;5.83;5.23;;;;;;;12.15;68.06;99082.53;5128606;27;41822;-82
2022/05/02 00:13:36;;;;;;;5.17;4.57;;;;;;;12.12;68.00;99078.28;5116199;27;42146;-79
2022/05/02 00:16:06;;;;;;;6.10;5.33;;;;;;;12.09;67.70;99078.50;5115194;27;42045;-84
2022/05/02 00:18:34;;;;;;;5.23;4.50;;;;;;;11.96;67.94;99058.16;5133657;27;39798;-81
2022/05/02 00:21:02;;;;;;;5.10;4.60;;;;;;;12.06;68.22;99075.19;5117329;27;40660;-84
2022/05/02 00:23:30;;;;;;;5.47;4.77;;;;;;;12.02;68.00;99069.22;5118646;27;41820;-80
2022/05/02 00:25:59;;;;;;;5.17;4.67;;;;;;;12.00;68.59;99064.94;5116239;27;41421;-85
2022/05/02 00:28:26;;;;;;;6.30;5.10;;;;;;;11.81;68.57;99036.97;5116342;27;40020;-86
2022/05/02 00:30:55;;;;;;;5.20;4.70;;;;;;;11.95;68.47;99059.94;5133223;27;40499;-81
2022/05/02 00:33:22;;;;;;;7.40;6.20;;;;;;;11.59;68.29;99010.09;5116229;27;43399;-81
2022/05/02 00:35:50;;;;;;;6.33;5.80;;;;;;;11.92;68.69;99072.56;5114747;27;41160;-83
2022/05/02 00:38:17;;;;;;;5.60;4.93;;;;;;;11.83;68.40;99050.97;5133714;27;39950;-84
2022/05/02 00:40:45;;;;;;;7.07;5.07;;;;;;;11.84;68.98;99059.78;5116498;27;41924;-84
2022/05/02 00:43:14;;;;;;;5.20;4.63;;;;;;;11.80;69.33;99059.13;5127895;27;43564;-81
2022/05/02 00:45:42;;;;;;;6.70;6.10;;;;;;;11.67;70.00;99044.91;5112788;28;43241;-77
2022/05/02 00:48:10;;;;;;;6.27;5.67;;;;;;;11.74;69.59;99058.66;5097458;28;39707;-82
2022/05/02 00:50:40;;;;;;;6.10;5.50;;;;;;;11.62;70.05;99043.53;5114173;28;21671;-81
2022/05/02 00:53:10;;;;;;;6.67;5.03;;;;;;;11.55;70.25;99037.75;5094833;27;43188;-85
2022/05/02 00:55:38;;;;;;;5.03;4.43;;;;;;;11.61;70.09;99053.28;5112393;28;43309;-84
2022/05/02 00:58:07;;;;;;;5.40;4.90;;;;;;;11.63;69.83;99061.97;5095581;28;38930;-83
2022/05/02 01:00:38;;;;;;;4.20;3.87;;;;;;;11.61;69.65;99058.59;5111856;28;41793;-85
2022/05/02 01:03:08;;;;;;;4.73;4.33;;;;;;;11.59;69.57;99059.63;5113312;27;43742;-84
2022/05/02 01:07:08;;;;;;;5.27;4.77;;;;;;;11.56;69.84;99058.00;5111390;28;42787;-84
2022/05/02 01:08:28;;;;;;;4.97;4.50;;;;;;;11.53;70.58;99051.09;5095622;28;39066;-79
2022/05/02 01:10:57;;;;;;;6.90;6.20;;;;;;;11.51;71.01;99045.03;5113142;28;41797;-81
2022/05/02 01:13:33;;;;;;;6.67;5.17;;;;;;;11.49;71.13;99043.44;5128201;27;42936;-79
2022/05/02 01:16:08;;;;;;;6.53;5.93;;;;;;;11.48;70.79;99044.41;5132634;27;41258;-81
2022/05/02 01:18:36;;;;;;;6.23;5.27;;;;;;;11.46;70.72;99051.59;5116035;27;40067;-82
2022/05/02 01:21:09;;;;;;;6.20;5.60;;;;;;;11.45;71.01;99055.19;5134034;27;42641;-82
2022/05/02 01:23:37;;;;;;;6.60;6.00;;;;;;;11.43;71.54;99051.78;5111225;28;41613;-81
2022/05/02 01:26:04;;;;;;;6.20;5.60;;;;;;;11.42;71.62;99052.72;5104546;27;41207;-81
2022/05/02 01:28:32;;;;;;;6.27;5.67;;;;;;;11.40;72.10;99039.56;5113480;27;39238;-83
2022/05/02 01:31:00;;;;;;;5.73;4.73;;;;;;;11.38;72.24;99041.44;5133487;27;41515;-86
2022/05/02 01:33:27;;;;;;;5.30;4.80;;;;;;;11.37;71.88;99038.91;5132253;27;42896;-83
2022/05/02 01:35:55;;;;;;;5.43;4.90;;;;;;;11.35;71.82;99043.47;5132286;27;42114;-79
2022/05/02 01:38:24;;;;;;;5.53;4.67;;;;;;;11.34;71.85;99039.09;5133628;27;40915;-81
2022/05/02 01:40:52;;;;;;;5.00;4.50;;;;;;;11.32;71.45;99041.84;5114658;27;40779;-83
2022/05/02 01:43:20;;;;;;;5.30;4.57;;;;;;;11.31;71.21;99040.13;5111048;28;41862;-80
2022/05/02 01:45:49;;;;;;;6.00;5.40;;;;;;;11.29;71.38;99046.47;5094217;28;43655;-82
2022/05/02 01:48:16;;;;;;;4.57;4.10;;;;;;;11.14;70.87;99022.63;5094667;28;39045;-84
2022/05/02 01:50:50;;;;;;;5.13;4.03;;;;;;;11.24;70.44;99032.69;5111404;28;41439;-82
2022/05/02 01:53:17;;;;;;;5.00;4.40;;;;;;;11.20;70.36;99034.66;5111010;28;44645;-81
2022/05/02 01:55:46;;;;;;;3.63;3.33;;;;;;;11.16;70.76;99039.28;5112689;28;42297;-79
2022/05/02 01:58:14;;;;;;;3.90;3.60;;;;;;;11.14;70.46;99032.38;5104798;27;40514;-82
2022/05/02 02:00:42;;;;;;;4.43;4.03;;;;;;;11.10;70.33;99036.19;5132224;27;42717;-84
2022/05/02 02:03:10;;;;;;;5.57;4.13;;;;;;;11.06;70.31;99035.50;5114852;27;41037;-85
2022/05/02 02:05:49;;;;;;;6.10;3.80;;;;;;;10.97;70.22;99030.78;5131446;27;42412;-80
2022/05/02 02:08:17;;;;;;;3.63;3.30;;;;;;;10.99;69.97;99036.84;5129079;27;41439;-84
2022/05/02 02:10:46;;;;;;;5.07;3.40;;;;;;;10.95;69.93;99037.13;5131618;27;41679;-79
2022/05/02 02:13:14;;;;;;;3.90;3.50;;;;;;;10.90;69.89;99040.03;5131671;27;41448;-86
2022/05/02 02:15:42;;;;;;;3.40;3.10;;;;;;;10.86;69.99;99042.97;5114834;27;42384;-82
2022/05/02 02:18:10;;;;;;;5.67;3.83;;;;;;;10.82;70.66;99036.16;5131872;27;40891;-81
2022/05/02 02:20:39;;;;;;;4.50;4.10;;;;;;;10.76;70.36;99026.75;5131824;27;41120;-82
2022/05/02 02:23:06;;;;;;;4.23;3.67;;;;;;;10.75;70.27;99041.84;5131532;27;41601;-84
2022/05/02 02:25:34;;;;;;;4.67;4.27;;;;;;;10.71;70.18;99034.16;5148439;27;42543;-79
2022/05/02 02:28:04;;;;;;;6.23;4.30;;;;;;;10.66;70.53;99028.28;5135569;27;38754;-77
2022/05/02 02:30:31;;;;;;;3.53;3.23;;;;;;;10.68;70.42;99029.88;5152600;27;43362;-77
2022/05/02 02:33:00;;;;;;;5.17;4.23;;;;;;;10.69;70.58;99028.09;5154364;27;43087;-81
2022/05/02 02:35:28;;;;;;;3.87;3.47;;;;;;;10.72;70.55;99019.97;5152794;27;43000;-79
2022/05/02 02:37:55;;;;;;;5.37;4.83;;;;;;;10.71;70.95;99012.97;5131395;27;39002;-82
2022/05/02 02:40:23;;;;;;;6.00;5.00;;;;;;;10.72;71.21;99015.53;5141410;27;41790;-80
2022/05/02 02:42:51;;;;;;;4.97;4.50;;;;;;;10.72;70.92;99015.53;5140186;27;41623;-80
2022/05/02 02:45:20;;;;;;;5.17;4.67;;;;;;;10.74;70.83;99018.09;5123529;27;44113;-80
2022/05/02 02:47:47;;;;;;;5.43;4.33;;;;;;;10.73;70.93;99011.09;5123831;27;39032;-79
2022/05/02 02:50:15;;;;;;;4.30;3.90;;;;;;;10.73;70.91;99014.59;5121736;27;42059;-83
2022/05/02 02:52:43;;;;;;;4.10;3.60;;;;;;;10.59;70.75;98995.16;5134908;27;44742;-83
2022/05/02 02:55:10;;;;;;;4.77;4.13;;;;;;;10.65;70.67;99013.31;5134610;27;41254;-84
2022/05/02 02:57:38;;;;;;;4.10;3.80;;;;;;;10.60;70.63;99015.41;5117322;27;39880;-84
2022/05/02 03:00:08;;;;;;;3.90;3.50;;;;;;;10.54;70.82;99003.38;5113986;28;40713;-83
2022/05/02 03:02:38;;;;;;;4.23;3.43;;;;;;;10.51;71.08;99005.38;5113869;28;44236;-81
2022/05/02 03:07:52;;;;;;;3.93;3.53;;;;;;;10.37;70.96;99004.41;5110939;28;40707;-87
2022/05/02 03:10:20;;;;;;;4.10;3.70;;;;;;;10.32;70.89;98998.50;5132784;27;40859;-84
2022/05/02 03:12:48;;;;;;;5.10;4.60;;;;;;;10.28;71.11;98994.34;5117283;27;43209;-78
2022/05/02 03:15:16;;;;;;;3.97;3.57;;;;;;;10.25;70.98;98991.91;5135382;27;43194;-78
2022/05/02 03:17:45;;;;;;;3.20;2.90;;;;;;;10.21;70.81;98992.16;5126001;27;39770;-84
2022/05/02 03:20:14;;;;;;;4.27;3.87;;;;;;;10.17;70.96;98993.22;5113344;28;42676;-84
2022/05/02 03:22:42;;;;;;;4.40;4.00;;;;;;;9.93;71.27;98961.97;5099338;28;43018;-81
2022/05/02 03:25:10;;;;;;;3.33;2.97;;;;;;;9.99;71.46;98976.66;5115928;28;42589;-79
2022/05/02 03:27:38;;;;;;;4.47;3.57;;;;;;;10.05;71.42;98992.16;5096555;28;39104;-86
2022/05/02 03:30:07;;;;;;;4.17;3.77;;;;;;;10.01;70.85;98990.66;5121133;27;41809;-82
2022/05/02 03:32:34;;;;;;;4.10;3.70;;;;;;;9.98;70.89;98998.75;5114206;27;44278;-80
2022/05/02 03:35:04;;;;;;;5.43;4.80;;;;;;;9.94;71.24;98994.56;5133384;27;42407;-81
2022/05/02 03:37:32;;;;;;;5.53;4.73;;;;;;;9.92;71.32;98993.81;5133824;27;39920;-83
2022/05/02 03:39:59;;;;;;;8.23;5.87;;;;;;;9.89;71.62;98996.66;5116387;27;41914;-79
2022/05/02 03:42:27;;;;;;;5.20;4.70;;;;;;;9.87;72.12;98987.94;5112816;28;43685;-81
2022/05/02 03:44:54;;;;;;;5.13;4.27;;;;;;;9.86;72.23;98986.22;5096165;28;42243;-87
2022/05/02 03:47:22;;;;;;;6.20;5.03;;;;;;;9.66;72.68;98956.47;5113022;28;40986;-80
2022/05/02 03:49:50;;;;;;;5.87;5.07;;;;;;;9.83;72.95;98986.41;5113912;28;42095;-82
2022/05/02 03:52:19;;;;;;;6.07;5.47;;;;;;;9.83;72.72;98983.75;5112995;28;44772;-81
2022/05/02 03:54:46;;;;;;;5.17;4.27;;;;;;;9.80;72.41;98991.88;5113266;28;41895;-83
2022/05/02 03:57:14;;;;;;;4.90;4.40;;;;;;;9.79;72.80;98990.16;5113013;28;40467;-85
2022/05/02 03:59:42;;;;;;;6.13;5.07;;;;;;;9.77;72.74;98986.78;5095762;28;41865;-83
2022/05/02 04:02:10;;;;;;;5.50;5.00;;;;;;;9.75;72.58;98984.22;5112603;28;42966;-81
2022/05/02 04:04:37;;;;;;;5.83;5.00;;;;;;;9.75;72.77;98988.66;5113268;28;41279;-83
2022/05/02 04:07:05;;;;;;;5.10;4.60;;;;;;;9.74;72.44;98993.09;5095732;28;39776;-82
2022/05/02 04:09:34;;;;;;;5.07;3.43;;;;;;;9.73;72.20;98989.59;5095837;28;42159;-84
2022/05/02 04:12:02;;;;;;;4.50;4.10;;;;;;;9.75;72.15;98996.59;5112876;28;42916;-83
2022/05/02 04:14:30;;;;;;;3.87;3.47;;;;;;;9.75;72.13;98988.66;5113334;28;43146;-81
2022/05/02 04:16:57;;;;;;;3.87;3.47;;;;;;;9.58;72.29;98961.38;5113977;28;39936;-83
2022/05/02 04:19:25;;;;;;;4.70;3.57;;;;;;;9.80;72.08;98986.56;5095929;28;40569;-81
2022/05/02 04:21:53;;;;;;;4.17;3.57;;;;;;;9.76;71.79;98980.63;5095582;28;44162;-79
2022/05/02 04:24:21;;;;;;;4.80;3.07;;;;;;;9.85;71.66;98984.53;5112574;28;42280;-80
2022/05/02 04:26:50;;;;;;;3.63;3.30;;;;;;;9.86;71.66;98987.09;5095749;28;39403;-83
2022/05/02 04:29:17;;;;;;;3.27;2.97;;;;;;;9.89;71.72;98991.34;5119432;27;42618;-79
2022/05/02 04:31:45;;;;;;;3.60;3.10;;;;;;;9.91;71.66;98995.59;5131724;27;43812;-86
2022/05/02 04:34:14;;;;;;;3.50;3.20;;;;;;;9.95;71.27;98997.13;5133910;27;42271;-85
2022/05/02 04:36:47;;;;;;;3.20;2.90;;;;;;;10.01;71.53;98994.13;5133039;27;41060;-81
2022/05/02 04:39:15;;;;;;;4.23;3.50;;;;;;;10.12;71.37;98993.53;5134131;27;41774;-87
2022/05/02 04:41:43;;;;;;;4.60;3.93;;;;;;;10.25;71.27;98999.84;5143920;27;42992;-81
2022/05/02 04:44:11;;;;;;;4.17;3.40;;;;;;;10.41;71.44;98990.03;5132685;27;42829;-83
2022/05/02 04:46:39;;;;;;;4.60;3.83;;;;;;;10.61;71.06;99002.09;5115331;27;39035;-81
2022/05/02 04:49:07;;;;;;;3.93;3.13;;;;;;;10.82;70.75;99005.22;5132340;27;42233;-79
2022/05/02 04:51:34;;;;;;;6.60;3.37;;;;;;;10.89;70.37;98982.69;5132525;27;43736;-82
2022/05/02 04:54:02;;;;;;;4.27;3.43;;;;;;;11.06;69.90;98982.50;5132866;27;43086;-83
2022/05/02 04:56:29;;;;;;;4.27;3.67;;;;;;;11.41;69.57;99003.28;5132476;27;39403;-84
2022/05/02 04:58:57;;;;;;;3.60;2.97;;;;;;;11.46;69.23;98983.50;5132570;27;40996;-88
2022/05/02 05:01:26;;;;;;;4.40;4.00;;;;;;;11.62;69.40;98985.16;5132619;27;43843;-86
2022/05/02 05:03:54;;;;;;;4.37;3.77;;;;;;;11.74;68.97;98974.59;5115419;27;42055;-84
2022/05/02 05:06:22;;;;;;;4.60;3.90;;;;;;;11.96;69.35;98990.00;5115233;27;41610;-79
2022/05/02 05:08:49;;;;;;;5.27;3.90;;;;;;;12.03;69.57;98987.78;5132624;27;41821;-83
2022/05/02 05:11:36;;;;;;;5.27;4.27;;;;;;;12.23;69.33;98993.47;5132823;27;42647;-81
2022/05/02 05:17:22;;;;;;;5.40;3.60;;;;;;;12.41;68.51;98991.38;5115164;27;40137;-83
2022/05/02 05:20:01;;;;;;;5.70;4.30;;;;;;;12.74;68.02;99009.47;5133534;27;41493;-87
2022/05/02 05:22:45;;;;;;;5.37;3.83;;;;;;;12.87;67.68;98996.16;5133397;27;43810;-85
2022/05/02 05:25:34;;;;;;;5.30;4.10;;;;;;;13.11;67.17;99009.56;5128691;27;42335;-87
2022/05/02 05:28:33;;;;;;;3.47;3.17;;;;;;;13.19;66.80;99002.78;5132343;27;42567;-84
2022/05/02 05:31:14;;;;;;;5.57;3.87;;;;;;;13.21;66.90;99000.03;5131635;27;41499;-82
2022/05/02 05:33:52;;;;;;;6.23;3.90;;;;;;;13.23;67.03;98995.41;5131789;27;43293;-79
2022/05/02 05:36:28;;;;;;;5.13;4.17;;;;;;;13.27;66.39;98997.75;5131541;27;41150;-84
2022/05/02 05:39:04;;;;;;;4.40;3.43;;;;;;;13.35;66.46;99007.88;5130329;27;40788;-82
2022/05/02 05:41:48;;;;;;;4.77;3.67;;;;;;;13.45;65.72;99010.72;5119432;27;41799;-83
2022/05/02 05:44:25;;;;;;;6.10;4.10;;;;;;;13.39;64.30;99008.50;5110945;28;42270;-82
2022/05/02 05:47:09;;;;;;;5.17;4.20;;;;;;;13.55;64.30;99017.09;5110457;27;42051;-83
2022/05/02 05:49:47;;;;;;;5.90;3.80;;;;;;;13.73;63.85;99010.41;5108614;28;39915;-79
2022/05/02 05:52:22;;;;;;;3.73;3.40;;;;;;;13.88;63.62;99005.78;5093857;28;40819;-83
2022/05/02 05:55:04;;;;;;;4.23;3.63;;;;;;;14.07;63.32;99013.28;5110941;28;41296;-83
2022/05/02 05:57:43;;;;;;;4.47;3.73;;;;;;;14.22;62.81;99009.44;5126258;27;42327;-85
2022/05/02 06:00:13;;;;;;;5.20;3.63;;;;;;;14.33;62.32;99014.84;5115554;27;39759;-82
2022/05/02 06:02:49;;;;;;;5.00;3.93;;;;;;;14.42;61.96;99018.66;5135597;27;41967;-84
2022/05/02 06:05:19;;;;;;;5.47;3.63;;;;;;;14.56;61.87;99016.66;5114426;28;42807;-82
2022/05/02 06:07:47;;;;;;;5.57;3.97;;;;;;;14.70;61.61;99018.25;5098150;28;41167;-79
2022/05/02 06:10:16;;;;;;;4.37;3.70;;;;;;;14.84;61.84;99019.84;5103023;28;40633;-82
2022/05/02 06:12:45;;;;;;;4.30;3.70;;;;;;;14.91;60.60;99032.59;5114809;28;40768;-85
2022/05/02 06:20:50;;;;;;;5.77;3.63;;;;;;;15.38;59.45;99036.88;5114895;27;41614;-83
2022/05/02 06:23:18;;;;;;;6.27;3.53;;;;;;;15.64;58.93;99037.50;5137533;27;42682;-82
2022/05/02 06:25:50;;;;;;;5.80;3.80;;;;;;;15.88;58.85;99040.00;5133028;27;43234;-84
2022/05/02 06:28:22;;;;;;;4.60;3.73;;;;;;;16.27;58.11;99041.22;5134742;27;42234;-80
2022/05/02 06:30:54;;;;;;;4.47;3.87;;;;;;;16.79;56.32;99048.44;5137590;27;38981;-82
2022/05/02 06:33:24;;;;;;;4.80;3.93;;;;;;;17.56;53.24;99066.72;5136126;27;41299;-80
2022/05/02 06:36:07;;;;;;;4.23;3.50;;;;;;;18.25;52.24;99066.81;5135762;27;41719;-88
2022/05/02 06:38:51;;;;;;;4.10;3.33;;;;;;;18.49;52.27;99053.84;5119011;27;41291;-78
2022/05/02 06:41:36;;;;;;;3.77;3.33;;;;;;;18.39;52.69;99030.72;5133469;27;39842;-84
2022/05/02 06:44:14;;;;;;;3.90;3.50;;;;;;;18.45;51.32;99057.78;5117449;27;40997;-80
2022/05/02 06:46:47;;;;;;;3.73;3.40;;;;;;;18.37;50.58;99070.22;5117081;27;43327;-78
2022/05/02 06:49:16;;;;;;;3.80;3.50;;;;;;;18.24;50.35;99044.53;5117651;27;41401;-84
2022/05/02 06:51:51;;;;;;;4.73;3.67;;;;;;;18.27;50.15;99065.69;5134132;27;39157;-78
2022/05/02 06:54:51;;;;;;;7.67;3.60;;;;;;;18.29;49.34;99068.25;5118195;27;40740;-81
2022/05/02 06:57:32;;;;;;;5.50;4.00;;;;;;;18.30;49.17;99069.91;5133712;27;42523;-77
2022/05/02 07:00:06;;;;;;;3.90;3.50;;;;;;;18.24;48.72;99060.63;5117343;27;43932;-80
2022/05/02 07:02:54;;;;;;;3.27;3.00;;;;;;;18.38;49.65;99061.19;5152300;27;40315;-86
2022/05/02 07:05:27;;;;;;;3.73;3.23;;;;;;;18.40;48.86;99051.19;5125745;27;40701;-82
2022/05/02 07:08:00;;;;;;;5.17;3.70;;;;;;;18.59;49.43;99056.56;5131177;27;43836;-83
2022/05/02 07:10:33;;;;;;;4.67;3.60;;;;;;;18.71;50.45;99046.53;5133912;27;42665;-83
2022/05/02 07:13:16;;;;;;;4.20;3.40;;;;;;;18.91;50.61;99046.38;5113777;28;39773;-84
2022/05/02 07:15:46;;;;;;;3.73;3.43;;;;;;;19.21;48.69;99058.72;5098537;27;40857;-83
2022/05/02 07:18:41;;;;;;;4.47;3.50;;;;;;;19.47;47.80;99056.25;5117104;27;42826;-83
2022/05/02 07:24:35;;;;;;;3.77;3.43;;;;;;;19.77;46.79;99065.06;5116641;27;39090;-87
2022/05/02 07:27:14;;;;;;;3.73;3.43;;;;;;;19.61;46.85;99045.06;5117087;27;41788;-82
2022/05/02 07:29:52;;;;;;;4.07;3.73;;;;;;;19.70;47.89;99056.75;5134395;27;41706;-87
2022/05/02 07:32:24;;;;;;;4.60;3.77;;;;;;;19.68;47.30;99053.34;5116288;27;42393;-83
2022/05/02 07:34:53;;;;;;;3.47;3.10;;;;;;;19.84;47.83;99060.78;5131077;27;40854;-79
2022/05/02 07:37:22;;;;;;;4.03;3.63;;;;;;;19.92;47.63;99055.50;5133007;27;41954;-87
2022/05/02 07:39:52;;;;;;;4.23;3.63;;;;;;;20.07;46.61;99062.91;5134214;27;42676;-88
2022/05/02 07:42:20;;;;;;;3.80;3.40;;;;;;;20.30;47.09;99059.78;5133202;27;41409;-83
2022/05/02 07:44:51;;;;;;;3.63;3.33;;;;;;;20.57;46.07;99066.97;5117123;27;39264;-83
2022/05/02 07:47:20;;;;;;;4.13;3.40;;;;;;;20.93;46.44;99063.25;5133135;27;41533;-83
2022/05/02 07:49:49;;;;;;;4.10;3.27;;;;;;;21.36;44.99;99069.66;5116950;27;44022;-83
2022/05/02 07:52:27;;;;;;;3.97;3.37;;;;;;;21.91;44.36;99071.94;5132056;27;42213;-81
2022/05/02 07:55:01;;;;;;;5.03;4.00;;;;;;;22.51;44.17;99068.09;5131975;27;40916;-85
2022/05/02 07:57:33;;;;;;;8.67;4.07;;;;;;;22.91;41.67;99080.81;5134294;27;41691;-82
2022/05/02 08:00:02;;;;;;;5.13;3.90;;;;;;;23.00;40.20;99081.66;5134165;27;41524;-82
2022/05/02 08:02:40;;;;;;;6.23;4.10;;;;;;;22.90;39.72;99089.09;5132628;27;41579;-82
2022/05/02 08:05:08;;;;;;;5.43;4.00;;;;;;;22.96;40.80;99083.03;5133667;27;41745;-80
2022/05/02 08:07:39;;;;;;;4.10;3.53;;;;;;;23.07;39.68;99088.09;5134313;27;43142;-86
2022/05/02 08:10:20;;;;;;;5.57;3.97;;;;;;;23.42;40.03;99072.50;5131839;27;42621;-81
2022/05/02 08:12:55;;;;;;;3.90;3.43;;;;;;;24.03;39.16;99089.91;5133067;27;43113;-84
2022/05/02 08:15:26;;;;;;;4.17;3.40;;;;;;;24.41;39.17;99091.78;5133686;27;39326;-84
2022/05/02 08:18:15;;;;;;;4.50;3.90;;;;;;;24.46;38.13;99092.09;5116094;27;43295;-83
2022/05/02 08:20:50;;;;;;;4.43;3.73;;;;;;;24.54;36.21;99107.44;5115683;27;41894;-82
2022/05/02 08:29:44;;;;;;;4.60;3.67;;;;;;;25.28;35.29;99109.44;5115367;27;40812;-80
2022/05/02 08:32:22;;;;;;;4.33;3.93;;;;;;;25.90;36.12;99098.31;5133653;27;43977;-86
2022/05/02 08:35:02;;;;;;;4.63;3.73;;;;;;;26.32;34.78;99104.94;5130469;27;41647;-87
2022/05/02 08:37:45;;;;;;;4.73;4.33;;;;;;;26.91;32.69;99115.63;5136902;27;40129;-82
2022/05/02 08:40:22;;;;;;;3.83;3.53;;;;;;;27.75;33.65;99108.41;5129815;27;41883;-84
2022/05/02 08:43:22;;;;;;;4.87;3.80;;;;;;;28.66;30.93;99129.00;5131050;27;44148;-85
2022/05/02 08:46:22;;;;;;;5.27;4.87;;;;;;;29.36;29.97;99121.38;5131383;27;41438;-85
2022/05/02 08:49:35;;;;;;;4.43;4.03;;;;;;;30.21;28.54;99139.56;5115949;27;38997;-84
2022/05/02 08:52:39;;;;;;;5.13;4.50;;;;;;;30.21;27.35;99137.66;5133188;27;41095;-83
2022/05/02 08:55:16;;;;;;;4.67;4.27;;;;;;;31.03;26.21;99128.66;5115569;27;42160;-84
2022/05/02 08:58:33;;;;;;;4.27;3.97;;;;;;;31.60;26.28;99113.06;5132422;27;42566;-84
2022/05/02 09:01:20;;;;;;;4.20;3.80;;;;;;;31.50;25.66;99118.22;5037035;28;42655;-94
2022/05/02 09:04:28;;;;;;;4.43;3.63;;;;;;;30.95;27.20;99123.44;5108282;27;40610;-86
2022/05/02 09:07:35;;;;;;;4.60;4.03;;;;;;;30.91;27.97;99113.19;5122800;27;42295;-83
2022/05/02 09:10:10;;;;;;;3.93;3.63;;;;;;;31.03;27.30;99117.69;5115401;27;43529;-82
2022/05/02 09:13:00;;;;;;;4.57;3.83;;;;;;;30.71;27.67;99113.28;5129740;27;39790;-84
2022/05/02 09:15:58;;;;;;;4.43;4.03;;;;;;;30.59;28.83;99107.69;5129304;27;41626;-84
2022/05/02 09:19:25;;;;;;;4.93;4.53;;;;;;;31.27;26.45;99123.47;5135189;27;43483;-84
2022/05/02 09:22:24;;;;;;;4.83;3.73;;;;;;;32.26;24.82;99128.88;5079307;27;42231;-85
2022/05/02 09:25:05;;;;;;;5.03;4.60;;;;;;;32.38;25.15;99121.56;5115574;27;39858;-82
2022/05/02 09:27:38;;;;;;;5.90;5.17;;;;;;;32.83;24.17;99129.41;5128621;27;42575;-81
2022/05/02 09:30:25;;;;;;;4.53;4.13;;;;;;;32.63;24.64;99139.81;5129391;27;42685;-82
2022/05/02 09:33:06;;;;;;;4.67;4.27;;;;;;;32.23;24.65;99129.31;5114642;27;41779;-81
2022/05/02 09:35:44;;;;;;;4.67;4.10;;;;;;;31.67;24.99;99113.88;5128931;27;40911;-83
2022/05/02 09:38:56;;;;;;;4.83;4.40;;;;;;;31.46;25.92;99117.00;5114909;27;41999;-91
2022/05/02 09:41:46;;;;;;;5.37;4.40;;;;;;;30.76;27.24;99074.38;5113988;27;43240;-85
2022/05/02 09:50:22;;;;;;;4.20;3.90;;;;;;;30.34;27.57;99085.69;5111400;28;40457;-82
2022/05/02 09:53:04;;;;;;;4.07;3.67;;;;;;;31.34;27.33;99069.50;5133010;27;41613;-81
2022/05/02 09:58:39;;;;;;;5.30;4.80;;;;;;;32.56;24.76;99095.16;5133120;27;40909;-83
2022/05/02 10:01:17;;;;;;;5.17;4.10;;;;;;;32.15;25.95;99093.94;5126896;27;41770;-83
2022/05/02 10:04:04;;;;;;;4.80;3.83;;;;;;;31.37;26.41;99074.53;5129921;27;42465;-86
2022/05/02 10:06:37;;;;;;;4.67;4.13;;;;;;;30.88;27.06;99073.44;5129017;27;42516;-80
2022/05/02 10:09:18;;;;;;;4.97;4.10;;;;;;;30.59;27.18;99060.38;5150429;27;40947;-88
2022/05/02 10:12:04;;;;;;;5.03;4.53;;;;;;;30.65;27.12;99064.97;5134946;27;41871;-83
2022/05/02 10:15:13;;;;;;;5.50;5.00;;;;;;;30.45;26.91;99075.13;5134533;27;41874;-82
2022/05/02 10:18:26;;;;;;;5.40;4.90;;;;;;;29.92;28.06;99053.50;5134338;27;41063;-83
2022/05/02 10:21:07;;;;;;;4.70;4.30;;;;;;;29.86;29.60;99043.41;5039158;28;40679;-82
2022/05/02 10:23:54;;;;;;;4.17;3.63;;;;;;;30.54;28.14;99052.00;5123116;27;42342;-81
2022/05/02 10:26:32;;;;;;;4.60;4.13;;;;;;;31.81;26.79;99058.97;5151434;27;42909;-80
2022/05/02 10:29:34;;;;;;;5.00;4.50;;;;;;;32.52;26.08;99061.06;5152080;27;41449;-81
2022/05/02 10:32:05;;;;;;;4.13;3.73;;;;;;;32.98;25.99;99050.25;5125014;27;39889;-85
2022/05/02 10:34:34;;;;;;;4.83;4.00;;;;;;;33.65;26.09;99047.19;5131447;27;41784;-84
2022/05/02 10:37:06;;;;;;;4.63;4.13;;;;;;;34.24;23.85;99065.28;5113306;27;42869;-81
2022/05/02 10:39:46;;;;;;;5.23;4.73;;;;;;;34.10;22.78;99072.97;5113963;27;41440;-82
2022/05/02 10:42:19;;;;;;;4.10;3.80;;;;;;;33.22;23.45;99042.03;5126295;27;39126;-88
2022/05/02 10:44:56;;;;;;;4.27;3.87;;;;;;;32.55;25.34;99023.03;5120503;27;40821;-85
2022/05/02 10:47:27;;;;;;;4.83;4.37;;;;;;;33.07;24.43;99048.81;5112546;27;42817;-82
2022/05/02 10:50:05;;;;;;;5.07;4.57;;;;;;;32.61;24.67;99018.53;5113506;27;43207;-84
2022/05/02 10:52:51;;;;;;;4.70;4.30;;;;;;;33.02;23.99;99014.91;5096463;28;39761;-86
2022/05/02 10:55:25;;;;;;;5.43;3.47;;;;;;;33.86;24.49;98992.50;5111646;27;42302;-83
2022/05/02 10:57:56;;;;;;;4.40;3.53;;;;;;;34.18;22.50;99049.75;5133364;27;41848;-78
2022/05/02 11:00:24;;;;;;;4.07;3.70;;;;;;;32.96;23.69;99024.13;5125516;27;41303;-85
2022/05/02 11:02:55;;;;;;;4.07;3.70;;;;;;;32.79;24.74;99021.22;5113594;28;40051;-83
2022/05/02 11:05:28;;;;;;;3.80;3.50;;;;;;;32.46;24.92;99008.81;5114797;28;41715;-86
2022/05/02 11:08:04;;;;;;;4.13;3.80;;;;;;;32.99;24.26;99029.97;5124390;27;43824;-89
2022/05/02 11:10:40;;;;;;;4.07;3.63;;;;;;;33.64;24.48;99021.63;5114246;27;40861;-89
2022/05/02 11:22:41;;;;;;;3.97;3.67;;;;;;;32.25;25.25;98990.16;5115819;27;42373;-81
2022/05/02 11:25:14;;;;;;;4.17;3.77;;;;;;;31.29;25.03;98968.06;5116987;27;38784;-84
2022/05/02 11:27:57;;;;;;;3.77;3.43;;;;;;;31.52;25.98;98992.91;5139118;27;42105;-82
2022/05/02 11:30:38;;;;;;;4.20;3.70;;;;;;;31.99;25.71;98985.00;5137554;27;41327;-86
2022/05/02 11:33:12;;;;;;;3.97;3.60;;;;;;;32.32;25.14;99001.84;5098447;28;42681;-82
2022/05/02 11:36:05;;;;;;;3.97;3.67;;;;;;;32.40;25.01;98998.75;5151707;27;39375;-89
2022/05/02 11:39:07;;;;;;;4.80;3.97;;;;;;;32.63;24.65;98999.94;5137519;27;41805;-86
2022/05/02 11:48:18;;;;;;;4.47;4.00;;;;;;;31.62;25.26;98974.03;5111266;28;41062;-87
2022/05/02 11:50:49;;;;;;;6.57;5.10;;;;;;;30.74;25.53;98978.88;5100082;28;42322;-83
2022/05/02 11:53:18;;;;;;;4.53;4.00;;;;;;;30.03;28.33;98919.00;5122651;27;41368;-78
2022/05/02 11:55:47;;;;;;;3.60;3.30;;;;;;;29.99;28.00;98972.38;5116813;27;42841;-83
2022/05/02 11:58:26;;;;;;;4.27;3.50;;;;;;;30.02;28.88;98958.31;5116024;27;38529;-81
2022/05/02 12:01:02;;;;;;;4.53;3.87;;;;;;;31.50;28.70;98953.13;5107130;27;42446;-79
2022/05/02 12:03:51;;;;;;;4.27;3.87;;;;;;;32.00;25.42;98986.66;5092172;28;43725;-80
2022/05/02 12:06:30;;;;;;;3.70;3.40;;;;;;;31.66;26.37;98972.53;5094010;28;41595;-81
2022/05/02 12:09:03;;;;;;;3.40;3.10;;;;;;;31.31;25.15;98975.00;5095313;27;40143;-85
2022/05/02 12:11:32;;;;;;;4.20;3.90;;;;;;;31.07;26.73;98962.16;5099133;27;40777;-82
2022/05/02 12:14:01;;;;;;;4.23;3.40;;;;;;;30.79;25.08;98980.91;5111966;27;42868;-85
2022/05/02 12:16:33;;;;;;;5.87;3.87;;;;;;;30.73;25.05;98985.41;5094275;27;42290;-82
2022/05/02 12:19:08;;;;;;;3.60;3.30;;;;;;;31.56;24.71;98971.34;5113414;27;39232;-82
2022/05/02 12:21:41;;;;;;;4.70;3.27;;;;;;;32.21;23.80;98994.41;5113707;27;41998;-83
2022/05/02 12:24:11;;;;;;;3.60;3.27;;;;;;;32.21;25.14;98971.66;5109823;28;42981;-82
2022/05/02 12:26:46;;;;;;;5.23;3.50;;;;;;;32.02;24.79;98974.38;5094696;28;41400;-82
2022/05/02 12:29:16;;;;;;;5.03;3.13;;;;;;;31.67;23.93;98981.56;5112668;28;39377;-82
2022/05/02 12:31:52;;;;;;;3.70;3.40;;;;;;;31.28;24.79;98982.84;5090630;28;40714;-83
2022/05/02 12:34:22;;;;;;;4.50;3.40;;;;;;;30.87;24.45;98986.97;5091594;27;41424;-86
2022/05/02 12:36:53;;;;;;;2.80;2.60;;;;;;;30.61;25.42;98949.75;5111055;28;42878;-83
2022/05/02 12:39:26;;;;;;;3.50;3.20;;;;;;;30.85;25.74;98949.97;5112397;28;39828;-88
2022/05/02 12:41:59;;;;;;;4.00;3.70;;;;;;;32.77;24.06;98963.84;5081728;28;42194;-91
2022/05/02 12:44:41;;;;;;;3.83;3.43;;;;;;;34.66;22.14;98941.22;5093602;28;42854;-87
2022/05/02 12:47:47;;;;;;;4.13;3.73;;;;;;;36.60;19.87;98983.03;5093974;28;41236;-86
2022/05/02 12:50:23;;;;;;;4.77;3.97;;;;;;;37.35;19.75;98970.97;5080448;28;40641;-87
2022/05/02 12:52:52;;;;;;;4.03;3.70;;;;;;;37.58;20.06;98974.44;5110478;27;40884;-82
2022/05/02 12:55:22;;;;;;;3.70;3.40;;;;;;;38.53;19.00;98975.94;5093339;28;42194;-82